createdAt,value
2023-05-14T04:33:56.204Z,34.21
2023-05-14T04:53:56.134Z,34.2
2023-05-14T05:13:56.635Z,34.19
2023-05-14T05:33:56.118Z,34.19
2023-05-14T05:53:56.617Z,34.18
2023-05-14T06:13:56.612Z,34.18
2023-05-14T06:33:56.621Z,34.17
2023-05-14T06:53:56.572Z,34.17
2023-05-14T07:13:56.564Z,34.16
2023-05-14T07:33:56.559Z,34.16
2023-05-14T07:53:56.522Z,34.15
2023-05-14T08:13:56.526Z,34.15
2023-05-14T08:33:55.732Z,34.15
2023-05-14T08:53:56.519Z,34.14
2023-05-14T09:13:56.487Z,34.14
2023-05-14T09:33:55.683Z,34.14
2023-05-14T09:53:56.458Z,34.14
2023-05-14T10:13:55.656Z,34.13
2023-05-14T10:33:55.999Z,34.13
2023-05-14T10:53:56.440Z,34.12
2023-05-14T11:13:56.374Z,34.12
2023-05-14T11:33:55.832Z,34.12
2023-05-14T11:53:56.346Z,34.11
2023-05-14T12:13:56.321Z,34.11
2023-05-14T12:33:56.313Z,34.11
2023-05-14T12:53:56.285Z,34.1
2023-05-14T13:33:56.251Z,34.1
2023-05-14T13:53:55.500Z,34.09
2023-05-14T14:13:56.239Z,34.09
2023-05-14T14:33:56.108Z,34.09
2023-05-14T14:53:56.187Z,34.09
2023-05-14T15:13:55.649Z,34.08
2023-05-14T15:33:56.155Z,34.08
2023-05-14T15:53:56.143Z,34.07
2023-05-14T16:13:56.121Z,34.08
2023-05-14T16:33:56.093Z,34.07
2023-05-14T16:53:56.080Z,34.07
2023-05-14T17:13:56.047Z,34.06
2023-05-14T17:33:56.034Z,34.06
2023-05-14T17:53:56.019Z,34.05
2023-05-14T18:13:55.293Z,34.06
2023-05-14T18:33:56.004Z,34.05
2023-05-14T18:53:55.979Z,34.05
2023-05-14T19:13:55.827Z,34.04
2023-05-14T19:33:55.952Z,34.04
2023-05-14T19:53:55.167Z,34.03
2023-05-14T20:13:54.789Z,34.03
2023-05-14T20:33:55.417Z,34.04
2023-05-14T20:53:55.861Z,34.03
2023-05-14T21:13:55.870Z,34.02
2023-05-14T21:33:55.860Z,34.02
2023-05-14T21:53:55.055Z,34.02
2023-05-14T22:13:55.802Z,34.01
2023-05-14T22:33:55.787Z,34.01
2023-05-14T22:53:55.022Z,34.01
2023-05-14T23:13:55.773Z,34
2023-05-14T23:33:55.739Z,34
2023-05-14T23:53:55.717Z,34
